createdAt,value
2022-08-29T00:01:59.690Z,14.88
2022-08-29T00:04:26.114Z,14.69
2022-08-29T00:06:52.457Z,14.84
2022-08-29T00:09:18.627Z,14.77
2022-08-29T00:11:46.511Z,14.84
2022-08-29T00:14:21.099Z,14.91
2022-08-29T00:16:49.852Z,14.70
2022-08-29T00:19:16.099Z,14.72
2022-08-29T00:21:42.265Z,14.75
2022-08-29T00:24:09.342Z,14.68
2022-08-29T00:26:35.478Z,14.67
2022-08-29T00:29:01.613Z,14.60
2022-08-29T00:31:27.827Z,14.57
2022-08-29T00:33:54.052Z,14.57
2022-08-29T00:36:20.176Z,14.35
2022-08-29T00:38:49.094Z,14.38
2022-08-29T00:41:15.232Z,14.44
2022-08-29T00:43:41.374Z,14.54
2022-08-29T00:46:07.578Z,14.57
2022-08-29T00:48:33.773Z,14.57
2022-08-29T00:50:59.897Z,14.40
2022-08-29T00:53:26.054Z,14.18
2022-08-29T00:55:53.378Z,14.29
2022-08-29T00:58:19.509Z,14.44
2022-08-29T01:00:45.709Z,14.52
2022-08-29T01:03:11.881Z,14.34
2022-08-29T01:05:38.022Z,14.27
2022-08-29T01:08:04.187Z,14.12
2022-08-29T01:10:30.324Z,14.31
2022-08-29T01:12:56.499Z,14.29
2022-08-29T01:15:22.658Z,14.30
2022-08-29T01:17:48.818Z,14.25
2022-08-29T01:20:14.961Z,14.15
2022-08-29T01:22:41.121Z,14.09
2022-08-29T01:25:07.245Z,14.12
2022-08-29T01:27:33.384Z,14.20
2022-08-29T01:29:59.552Z,14.17
2022-08-29T01:32:25.746Z,14.08
2022-08-29T01:34:51.904Z,14.15
2022-08-29T01:37:18.871Z,14.11
2022-08-29T01:39:44.996Z,13.92
2022-08-29T01:42:11.124Z,14.00
2022-08-29T01:44:37.284Z,14.00
2022-08-29T01:47:03.709Z,13.92
2022-08-29T01:49:29.907Z,13.95
2022-08-29T01:51:56.050Z,13.99
2022-08-29T01:54:22.186Z,13.88
2022-08-29T01:56:49.852Z,13.85
2022-08-29T01:59:16.034Z,13.75
2022-08-29T02:01:42.218Z,13.78
2022-08-29T02:04:08.365Z,13.71
2022-08-29T02:06:34.547Z,13.46
2022-08-29T02:09:00.701Z,13.54
2022-08-29T02:11:26.848Z,13.59
2022-08-29T02:13:53.302Z,13.68
2022-08-29T02:16:19.460Z,13.71
2022-08-29T02:18:45.648Z,13.58
2022-08-29T02:21:11.830Z,13.54
2022-08-29T02:23:37.968Z,13.60
2022-08-29T02:26:04.153Z,13.61
2022-08-29T02:28:30.302Z,13.49
2022-08-29T02:30:56.699Z,13.41
2022-08-29T02:33:23.085Z,13.28
2022-08-29T02:35:49.229Z,13.12
2022-08-29T02:38:16.187Z,13.25
2022-08-29T02:40:42.402Z,13.37
2022-08-29T02:43:08.551Z,13.53
2022-08-29T02:45:34.685Z,13.53
2022-08-29T02:48:00.832Z,13.29
2022-08-29T02:50:26.988Z,13.15
2022-08-29T02:52:53.128Z,13.27
2022-08-29T02:55:19.260Z,13.28
2022-08-29T02:57:45.470Z,13.28
2022-08-29T03:00:11.596Z,13.34
2022-08-29T03:02:37.743Z,13.24
2022-08-29T03:05:03.885Z,13.02
2022-08-29T03:07:30.034Z,13.19
2022-08-29T03:09:56.156Z,13.24
2022-08-29T03:12:22.306Z,13.25
2022-08-29T03:14:48.441Z,13.33
2022-08-29T03:17:14.564Z,13.38
2022-08-29T03:19:40.721Z,13.33
2022-08-29T03:22:06.854Z,13.04
2022-08-29T03:24:32.997Z,12.94
2022-08-29T03:26:59.159Z,12.91
2022-08-29T03:29:25.305Z,13.14
2022-08-29T03:31:51.449Z,13.14
2022-08-29T03:34:17.610Z,12.89
2022-08-29T03:36:43.738Z,12.99
2022-08-29T03:39:09.879Z,12.79
2022-08-29T03:41:36.034Z,12.52
2022-08-29T03:44:02.165Z,12.73
2022-08-29T03:46:28.362Z,12.73
2022-08-29T03:48:54.590Z,12.62
2022-08-29T03:51:20.709Z,12.56
2022-08-29T03:53:46.847Z,12.55
2022-08-29T03:56:18.353Z,12.65
2022-08-29T03:58:48.094Z,12.63
2022-08-29T04:01:18.288Z,12.53
2022-08-29T04:03:44.446Z,12.71
2022-08-29T04:06:10.585Z,12.82
2022-08-29T04:08:36.743Z,12.66
2022-08-29T04:11:02.916Z,12.66
2022-08-29T04:13:29.059Z,12.49
2022-08-29T04:15:55.250Z,12.56
2022-08-29T04:18:22.565Z,12.65
2022-08-29T04:20:48.857Z,12.48
2022-08-29T04:23:15.079Z,12.41
2022-08-29T04:25:41.205Z,12.43
2022-08-29T04:28:07.466Z,12.44
2022-08-29T04:30:33.720Z,12.49
2022-08-29T04:32:59.861Z,12.55
2022-08-29T04:35:25.997Z,12.52
2022-08-29T04:37:52.166Z,12.72
2022-08-29T04:40:18.355Z,12.61
2022-08-29T04:42:44.557Z,12.42
2022-08-29T04:45:11.695Z,12.47
2022-08-29T04:47:37.828Z,12.43
2022-08-29T04:50:03.953Z,12.56
2022-08-29T04:52:30.119Z,12.76
2022-08-29T04:54:56.262Z,12.91
2022-08-29T04:57:22.454Z,12.89
2022-08-29T04:59:48.611Z,12.75
2022-08-29T05:02:16.644Z,12.66
2022-08-29T05:04:42.769Z,12.76
2022-08-29T05:07:08.906Z,12.82
2022-08-29T05:09:35.029Z,12.68
2022-08-29T05:12:01.172Z,12.62
2022-08-29T05:14:27.328Z,12.62
2022-08-29T05:16:53.469Z,12.78
2022-08-29T05:19:19.654Z,12.69
2022-08-29T05:21:45.811Z,12.74
2022-08-29T05:24:11.957Z,12.79
2022-08-29T05:26:38.112Z,12.94
2022-08-29T05:29:04.254Z,13.00
2022-08-29T05:31:34.719Z,12.78
2022-08-29T05:34:00.916Z,12.61
2022-08-29T05:36:47.123Z,12.85
2022-08-29T05:39:13.876Z,12.96
2022-08-29T05:41:40.111Z,12.96
2022-08-29T05:44:06.271Z,13.07
2022-08-29T05:46:32.441Z,13.06
2022-08-29T05:48:58.640Z,13.13
2022-08-29T05:51:24.951Z,12.97
2022-08-29T05:53:51.084Z,13.11
2022-08-29T05:56:17.240Z,13.28
2022-08-29T05:58:43.401Z,13.45
2022-08-29T06:01:09.578Z,13.49
2022-08-29T06:03:35.812Z,13.58
2022-08-29T06:06:02.052Z,13.60
2022-08-29T06:08:28.194Z,13.58
2022-08-29T06:10:54.322Z,13.57
2022-08-29T06:13:20.466Z,13.63
2022-08-29T06:15:46.628Z,13.62
2022-08-29T06:18:12.817Z,13.55
2022-08-29T06:20:38.973Z,13.60
2022-08-29T06:23:05.164Z,13.56
2022-08-29T06:25:40.050Z,13.61
2022-08-29T06:28:06.906Z,13.62
2022-08-29T06:30:33.105Z,13.71
2022-08-29T06:32:59.255Z,13.70
2022-08-29T06:35:25.463Z,13.79
2022-08-29T06:37:51.601Z,13.74
2022-08-29T06:40:17.794Z,13.68
2022-08-29T06:42:44.013Z,13.84
2022-08-29T06:45:10.145Z,14.07
2022-08-29T06:47:36.292Z,14.26
2022-08-29T06:50:02.435Z,14.06
2022-08-29T06:52:28.568Z,14.24
2022-08-29T06:54:54.697Z,14.54
2022-08-29T06:57:20.859Z,14.69
2022-08-29T06:59:46.993Z,14.87
2022-08-29T07:02:13.189Z,15.02
2022-08-29T07:04:39.396Z,15.12
2022-08-29T07:07:05.529Z,15.25
2022-08-29T07:09:31.661Z,15.36
2022-08-29T07:11:57.857Z,15.43
2022-08-29T07:14:24.034Z,15.39
2022-08-29T07:16:50.213Z,15.44
2022-08-29T07:19:16.416Z,15.55
2022-08-29T07:21:42.557Z,15.67
2022-08-29T07:24:08.708Z,15.71
2022-08-29T07:26:34.901Z,15.74
2022-08-29T07:29:03.152Z,15.70
2022-08-29T07:31:31.216Z,15.83
2022-08-29T07:34:02.299Z,15.91
2022-08-29T07:36:29.132Z,15.96
2022-08-29T07:38:55.250Z,15.98
2022-08-29T07:41:21.413Z,16.15
2022-08-29T07:43:47.587Z,16.29
2022-08-29T07:46:13.811Z,16.37
2022-08-29T07:48:40.006Z,16.45
2022-08-29T07:51:09.860Z,16.55
2022-08-29T07:53:36.680Z,16.69
2022-08-29T07:56:02.831Z,16.64
2022-08-29T07:58:28.978Z,16.75
2022-08-29T08:00:55.109Z,16.89
2022-08-29T08:03:21.277Z,16.96
2022-08-29T08:05:47.404Z,17.01
2022-08-29T08:08:13.900Z,17.12
2022-08-29T08:10:41.534Z,17.23
2022-08-29T08:13:07.733Z,17.35
2022-08-29T08:15:33.902Z,17.50
2022-08-29T08:18:00.057Z,17.61
2022-08-29T08:20:26.193Z,17.34
2022-08-29T08:22:54.361Z,17.46
2022-08-29T08:25:21.523Z,17.72
2022-08-29T08:27:50.661Z,17.78
2022-08-29T08:30:16.800Z,17.83
2022-08-29T08:32:46.413Z,17.94
2022-08-29T08:35:13.586Z,18.08
2022-08-29T08:37:39.889Z,18.02
2022-08-29T08:40:06.091Z,17.84
2022-08-29T08:42:32.265Z,17.84
2022-08-29T08:44:58.401Z,18.08
2022-08-29T08:47:24.564Z,18.16
2022-08-29T08:49:50.735Z,18.25
2022-08-29T08:52:16.866Z,18.43
2022-08-29T08:54:43.031Z,18.48
2022-08-29T08:57:09.183Z,18.23
2022-08-29T08:59:35.335Z,18.24
2022-08-29T09:02:06.582Z,18.38
2022-08-29T09:04:33.794Z,18.53
2022-08-29T09:06:59.928Z,18.45
2022-08-29T09:09:26.076Z,18.66
2022-08-29T09:11:52.210Z,18.87
2022-08-29T09:14:18.358Z,18.69
2022-08-29T09:16:44.572Z,18.82
2022-08-29T09:19:10.770Z,18.73
2022-08-29T09:21:41.072Z,18.87
2022-08-29T09:24:07.964Z,18.97
2022-08-29T09:26:34.141Z,18.98
2022-08-29T09:29:00.277Z,19.01
2022-08-29T09:31:26.460Z,19.13
2022-08-29T09:33:52.743Z,19.02
2022-08-29T09:36:18.900Z,19.10
2022-08-29T09:38:45.100Z,19.26
2022-08-29T09:41:11.242Z,19.39
2022-08-29T09:43:37.389Z,19.52
2022-08-29T09:46:03.605Z,19.51
2022-08-29T09:48:34.654Z,19.60
2022-08-29T09:51:01.584Z,19.68
2022-08-29T09:53:27.933Z,19.64
2022-08-29T09:55:55.764Z,19.13
2022-08-29T09:58:21.908Z,19.22
2022-08-29T10:00:48.086Z,19.29
2022-08-29T10:03:14.285Z,19.31
2022-08-29T10:05:40.524Z,19.47
2022-08-29T10:08:06.669Z,19.64
2022-08-29T10:10:32.806Z,19.47
2022-08-29T10:12:58.937Z,19.42
2022-08-29T10:15:48.976Z,19.20
2022-08-29T10:18:11.189Z,19.33
2022-08-29T10:20:37.344Z,19.39
2022-08-29T10:23:03.586Z,19.32
2022-08-29T10:25:29.725Z,19.36
2022-08-29T10:27:55.883Z,19.44
2022-08-29T10:30:22.050Z,19.58
2022-08-29T10:32:48.209Z,19.75
2022-08-29T10:35:14.374Z,19.97
2022-08-29T10:37:40.523Z,19.63
2022-08-29T10:40:06.739Z,19.59
2022-08-29T10:42:33.066Z,19.77
2022-08-29T10:44:59.213Z,20.03
2022-08-29T10:47:25.363Z,20.09
2022-08-29T10:49:51.519Z,19.87
2022-08-29T10:52:17.658Z,19.94
2022-08-29T10:54:43.807Z,20.04
2022-08-29T10:57:10.051Z,19.98
2022-08-29T10:59:36.199Z,19.90
2022-08-29T11:02:02.337Z,20.19
2022-08-29T11:04:28.555Z,20.11
2022-08-29T11:06:54.792Z,20.21
2022-08-29T11:09:20.930Z,20.20
2022-08-29T11:11:47.099Z,20.16
2022-08-29T11:14:13.260Z,20.24
2022-08-29T11:16:39.418Z,20.51
2022-08-29T11:19:05.610Z,20.53
2022-08-29T11:21:31.750Z,20.53
2022-08-29T11:23:57.873Z,20.74
2022-08-29T11:26:24.092Z,20.70
2022-08-29T11:28:50.240Z,20.46
2022-08-29T11:31:16.455Z,20.71
2022-08-29T11:33:42.655Z,20.77
2022-08-29T11:36:08.785Z,20.78
2022-08-29T11:38:34.927Z,20.85
2022-08-29T11:43:47.193Z,21.06
2022-08-29T11:46:13.740Z,21.15
2022-08-29T11:48:39.864Z,21.22
2022-08-29T11:51:05.982Z,21.32
2022-08-29T11:53:32.143Z,21.50
2022-08-29T11:55:58.277Z,21.57
2022-08-29T11:58:24.414Z,21.40
2022-08-29T12:00:50.903Z,21.46
2022-08-29T12:03:28.067Z,21.52
2022-08-29T12:05:55.223Z,21.53
2022-08-29T12:08:35.972Z,21.72
2022-08-29T12:11:02.525Z,21.81
2022-08-29T12:13:28.677Z,21.73
2022-08-29T12:15:54.921Z,21.87
2022-08-29T12:18:21.131Z,21.92
2022-08-29T12:20:47.259Z,22.06
2022-08-29T12:23:13.393Z,22.16
2022-08-29T12:25:39.550Z,22.08
2022-08-29T12:28:06.004Z,21.97
2022-08-29T12:30:32.353Z,22.06
2022-08-29T12:32:58.545Z,21.92
2022-08-29T12:35:24.728Z,21.87
2022-08-29T12:37:50.864Z,21.78
2022-08-29T12:40:17.090Z,21.59
2022-08-29T12:42:43.299Z,21.84
2022-08-29T12:45:09.448Z,22.18
2022-08-29T12:47:35.622Z,22.24
2022-08-29T12:50:01.770Z,22.40
2022-08-29T12:52:27.913Z,22.64
2022-08-29T12:54:56.448Z,22.72
2022-08-29T12:57:22.826Z,22.45
2022-08-29T12:59:48.940Z,22.52
2022-08-29T13:02:15.158Z,22.42
2022-08-29T13:04:41.302Z,22.22
2022-08-29T13:07:07.471Z,22.27
2022-08-29T13:09:33.651Z,22.18
2022-08-29T13:11:59.791Z,21.98
2022-08-29T13:14:25.954Z,21.81
2022-08-29T13:16:52.122Z,21.95
2022-08-29T13:19:18.268Z,21.80
2022-08-29T13:21:44.403Z,21.52
2022-08-29T13:24:10.576Z,21.76
2022-08-29T13:26:36.731Z,21.75
2022-08-29T13:29:02.869Z,21.87
2022-08-29T13:31:29.093Z,21.87
2022-08-29T13:33:55.276Z,21.67
2022-08-29T13:36:21.419Z,21.79
2022-08-29T13:38:47.579Z,21.80
2022-08-29T13:41:13.705Z,21.88
2022-08-29T13:43:39.828Z,21.70
2022-08-29T13:46:06.019Z,21.74
2022-08-29T13:48:32.197Z,22.08
2022-08-29T13:50:58.327Z,22.05
2022-08-29T13:53:24.540Z,22.06
2022-08-29T13:55:50.687Z,22.32
2022-08-29T13:58:16.976Z,22.40
2022-08-29T14:00:43.242Z,22.42
2022-08-29T14:03:09.623Z,22.38
2022-08-29T14:05:35.858Z,22.41
2022-08-29T14:08:02.002Z,22.30
2022-08-29T14:10:28.137Z,22.22
2022-08-29T14:12:54.281Z,22.06
2022-08-29T14:15:20.433Z,22.09
2022-08-29T14:17:46.577Z,22.12
2022-08-29T14:20:12.751Z,22.28
2022-08-29T14:22:38.915Z,22.34
2022-08-29T14:25:05.070Z,22.62
2022-08-29T14:27:31.190Z,22.92
2022-08-29T14:29:57.413Z,22.92
2022-08-29T14:32:23.589Z,22.96
2022-08-29T14:34:51.175Z,23.23
2022-08-29T14:37:18.651Z,23.41
2022-08-29T14:39:44.804Z,23.69
2022-08-29T14:42:16.209Z,24.07
2022-08-29T14:44:42.354Z,23.52
2022-08-29T14:47:08.498Z,23.85
2022-08-29T14:49:34.634Z,24.02
2022-08-29T14:52:00.790Z,24.51
2022-08-29T14:54:26.930Z,24.82
2022-08-29T14:56:53.061Z,25.73
2022-08-29T14:59:19.220Z,26.34
2022-08-29T15:01:48.651Z,27.21
2022-08-29T15:04:18.988Z,28.71
2022-08-29T15:06:48.005Z,30.50
2022-08-29T15:09:14.148Z,31.06
2022-08-29T15:11:40.268Z,31.93
2022-08-29T15:14:07.516Z,31.41
2022-08-29T15:16:33.656Z,31.71
2022-08-29T15:19:48.802Z,31.78
2022-08-29T15:21:45.921Z,31.07
2022-08-29T15:24:12.051Z,31.29
2022-08-29T15:26:38.173Z,31.31
2022-08-29T15:29:04.332Z,31.70
2022-08-29T15:31:30.516Z,32.87
2022-08-29T15:33:56.670Z,33.01
2022-08-29T15:36:22.824Z,32.68
2022-08-29T15:38:48.961Z,33.45
2022-08-29T15:41:15.094Z,32.38
2022-08-29T15:43:41.263Z,31.68
2022-08-29T15:46:07.481Z,31.57
2022-08-29T15:48:33.662Z,32.48
2022-08-29T15:50:59.822Z,32.60
2022-08-29T15:53:25.940Z,32.80
2022-08-29T15:55:52.078Z,33.00
2022-08-29T15:58:18.282Z,31.48
2022-08-29T16:00:44.417Z,32.58
2022-08-29T16:03:10.567Z,32.54
2022-08-29T16:05:36.757Z,32.19
2022-08-29T16:08:02.908Z,31.86
2022-08-29T16:10:29.045Z,31.68
2022-08-29T16:12:55.215Z,31.21
2022-08-29T16:15:21.344Z,29.68
2022-08-29T16:17:47.476Z,29.40
2022-08-29T16:20:13.666Z,29.15
2022-08-29T16:22:39.799Z,29.76
2022-08-29T16:25:05.921Z,30.39
2022-08-29T16:27:32.062Z,30.68
2022-08-29T16:29:58.198Z,30.97
2022-08-29T16:32:24.333Z,31.98
2022-08-29T16:34:50.480Z,31.13
2022-08-29T16:37:16.626Z,30.93
2022-08-29T16:39:42.773Z,31.35
2022-08-29T16:42:08.925Z,31.55
2022-08-29T16:44:35.072Z,30.40
2022-08-29T16:47:01.225Z,30.30
2022-08-29T16:49:27.392Z,30.30
2022-08-29T16:51:53.541Z,29.98
2022-08-29T16:54:19.674Z,30.09
2022-08-29T16:56:45.832Z,30.63
2022-08-29T16:59:11.962Z,29.65
2022-08-29T17:01:38.149Z,29.07
2022-08-29T17:04:05.121Z,28.64
2022-08-29T17:06:31.249Z,29.30
2022-08-29T17:08:57.670Z,29.23
2022-08-29T17:11:23.831Z,29.37
2022-08-29T17:13:49.965Z,29.54
2022-08-29T17:16:16.149Z,28.58
2022-08-29T17:18:42.433Z,28.37
2022-08-29T17:21:08.576Z,28.67
2022-08-29T17:23:34.721Z,28.36
2022-08-29T17:26:00.882Z,27.78
2022-08-29T17:28:27.008Z,27.95
2022-08-29T17:30:53.172Z,28.22
2022-08-29T17:33:19.574Z,28.27
2022-08-29T17:35:45.909Z,28.30
2022-08-29T17:38:12.229Z,27.60
2022-08-29T17:40:38.725Z,26.49
2022-08-29T17:43:07.024Z,26.34
2022-08-29T17:45:33.310Z,25.98
2022-08-29T17:47:59.508Z,25.98
2022-08-29T17:50:25.649Z,25.74
2022-08-29T17:52:51.772Z,25.42
2022-08-29T17:55:17.937Z,25.40
2022-08-29T17:57:44.071Z,25.37
2022-08-29T18:00:10.214Z,25.19
2022-08-29T18:02:36.474Z,25.08
2022-08-29T18:05:02.786Z,24.81
2022-08-29T18:07:28.920Z,24.70
2022-08-29T18:09:57.473Z,24.56
2022-08-29T18:12:23.734Z,24.43
2022-08-29T18:14:49.862Z,24.19
2022-08-29T18:17:16.009Z,23.96
2022-08-29T18:19:42.139Z,23.93
2022-08-29T18:22:08.283Z,23.84
2022-08-29T18:24:34.426Z,23.73
2022-08-29T18:27:00.569Z,23.58
2022-08-29T18:29:26.727Z,23.53
2022-08-29T18:31:52.869Z,23.38
2022-08-29T18:34:18.996Z,23.24
2022-08-29T18:36:45.155Z,23.11
2022-08-29T18:39:11.297Z,22.92
2022-08-29T18:41:37.465Z,22.82
2022-08-29T18:44:03.611Z,22.59
2022-08-29T18:46:29.828Z,22.50
2022-08-29T18:48:55.977Z,22.44
2022-08-29T18:51:22.122Z,22.36
2022-08-29T18:53:48.286Z,22.27
2022-08-29T18:56:14.419Z,22.16
2022-08-29T18:58:40.569Z,22.02
2022-08-29T19:01:06.840Z,21.91
2022-08-29T19:03:33.053Z,21.71
2022-08-29T19:05:59.197Z,21.71
2022-08-29T19:08:25.741Z,21.68
2022-08-29T19:10:53.922Z,21.57
2022-08-29T19:13:21.872Z,21.26
2022-08-29T19:15:51.419Z,21.15
2022-08-29T19:18:17.672Z,21.12
2022-08-29T19:20:43.908Z,20.92
2022-08-29T19:23:10.719Z,20.91
2022-08-29T19:25:36.858Z,20.83
2022-08-29T19:28:02.988Z,20.83
2022-08-29T19:30:29.153Z,20.74
2022-08-29T19:32:55.303Z,20.59
2022-08-29T19:35:21.439Z,20.47
2022-08-29T19:37:47.573Z,20.50
2022-08-29T19:40:13.760Z,20.46
2022-08-29T19:42:39.912Z,20.41
2022-08-29T19:45:06.066Z,20.31
2022-08-29T19:47:32.839Z,20.34
2022-08-29T19:49:58.988Z,20.33
2022-08-29T19:52:25.135Z,20.30
2022-08-29T19:54:51.269Z,20.37
2022-08-29T19:57:17.997Z,20.14
2022-08-29T19:59:44.690Z,20.11
2022-08-29T20:02:10.919Z,20.04
2022-08-29T20:04:37.137Z,20.12
2022-08-29T20:07:03.305Z,19.99
2022-08-29T20:09:29.550Z,19.89
2022-08-29T20:11:56.582Z,19.76
2022-08-29T20:14:22.773Z,19.73
2022-08-29T20:16:48.991Z,19.64
2022-08-29T20:19:15.184Z,19.62
2022-08-29T20:21:41.341Z,19.63
2022-08-29T20:24:07.486Z,19.54
2022-08-29T20:26:33.638Z,19.47
2022-08-29T20:28:59.812Z,19.60
2022-08-29T20:31:26.009Z,19.79
2022-08-29T20:33:52.189Z,19.63
2022-08-29T20:36:18.353Z,19.64
2022-08-29T20:38:44.491Z,19.62
2022-08-29T20:41:10.621Z,19.59
2022-08-29T20:43:39.154Z,19.58
2022-08-29T20:46:05.414Z,19.57
2022-08-29T20:48:31.565Z,19.49
2022-08-29T20:50:57.747Z,19.46
2022-08-29T20:53:31.661Z,19.48
2022-08-29T20:55:59.242Z,19.46
2022-08-29T20:58:25.444Z,19.42
2022-08-29T21:00:55.165Z,19.31
2022-08-29T21:03:21.354Z,19.29
2022-08-29T21:05:47.488Z,19.23
2022-08-29T21:08:13.656Z,19.21
2022-08-29T21:10:39.796Z,19.21
2022-08-29T21:13:05.925Z,19.18
2022-08-29T21:15:32.063Z,19.24
2022-08-29T21:17:58.225Z,19.25
2022-08-29T21:20:24.375Z,19.16
2022-08-29T21:22:50.515Z,19.09
2022-08-29T21:25:16.741Z,19.19
2022-08-29T21:27:42.865Z,19.12
2022-08-29T21:30:09.009Z,19.05
2022-08-29T21:32:35.163Z,19.15
2022-08-29T21:35:01.311Z,19.21
2022-08-29T21:37:27.452Z,19.37
2022-08-29T21:39:53.606Z,19.26
2022-08-29T21:42:19.800Z,19.37
2022-08-29T21:44:45.941Z,19.05
2022-08-29T21:47:14.819Z,18.89
2022-08-29T21:49:43.805Z,18.90
2022-08-29T21:52:09.954Z,18.78
2022-08-29T21:54:36.113Z,18.69
2022-08-29T21:57:02.243Z,18.74
2022-08-29T21:59:28.381Z,18.70
2022-08-29T22:01:54.962Z,18.68
2022-08-29T22:04:28.083Z,18.71
2022-08-29T22:06:55.464Z,18.63
2022-08-29T22:09:22.047Z,18.67
2022-08-29T22:11:48.188Z,18.61
2022-08-29T22:14:14.332Z,18.48
2022-08-29T22:16:40.488Z,18.41
2022-08-29T22:19:06.626Z,18.39
2022-08-29T22:21:32.819Z,18.51
2022-08-29T22:23:58.956Z,18.43
2022-08-29T22:26:25.076Z,18.25
2022-08-29T22:28:51.762Z,18.39
2022-08-29T22:31:17.953Z,18.38
2022-08-29T22:33:44.126Z,18.35
2022-08-29T22:36:10.276Z,18.40
2022-08-29T22:38:36.405Z,18.42
2022-08-29T22:41:02.532Z,18.15
2022-08-29T22:43:28.672Z,18.14
2022-08-29T22:45:54.797Z,18.30
2022-08-29T22:48:20.924Z,18.17
2022-08-29T22:50:58.563Z,18.23
2022-08-29T22:53:24.884Z,18.18
2022-08-29T22:55:51.036Z,18.09
2022-08-29T22:58:17.185Z,18.17
2022-08-29T23:00:43.313Z,18.20
2022-08-29T23:03:09.558Z,18.30
2022-08-29T23:05:35.777Z,18.42
2022-08-29T23:08:01.920Z,18.25
2022-08-29T23:10:28.085Z,18.27
2022-08-29T23:12:54.218Z,18.20
2022-08-29T23:15:20.354Z,18.22
2022-08-29T23:17:46.497Z,18.19
2022-08-29T23:20:12.627Z,18.21
2022-08-29T23:22:38.766Z,18.25
2022-08-29T23:25:05.409Z,18.21
2022-08-29T23:27:31.547Z,18.12
2022-08-29T23:29:57.681Z,18.03
2022-08-29T23:32:24.247Z,18.11
2022-08-29T23:34:50.386Z,18.20
2022-08-29T23:37:16.522Z,18.09
2022-08-29T23:39:42.729Z,18.13
2022-08-29T23:42:08.866Z,18.20
2022-08-29T23:44:34.995Z,18.08
2022-08-29T23:47:01.140Z,18.10
2022-08-29T23:49:27.270Z,18.06
2022-08-29T23:51:53.413Z,18.13
2022-08-29T23:54:19.570Z,18.18
2022-08-29T23:56:45.710Z,18.21
2022-08-29T23:59:11.848Z,18.16
